Nearby METAR Reports

 

KICL - Clarinda, Iowa, USA
Distance from station: N 49mi, 79km
Updated: Mon, 10-Dec-2018 11:35pm CST
Clear
Clear
 Wind from SW
Wind: SW 5 mph , 7 km/h
Temperature: 21°F , -6°C
Wind Chill: 14°F , -10°C
Dew Point: 19°F , -7°C
Humidity: 93%
Barometer: 30.17 inHg , 1021.7 hPa
Clouds: Clear
Visibility: 10 miles , 16 km
2018/12/11 05:35 KICL 110535Z AUTO 22004KT 10SM CLR M06/M07 A3017 RMK AO2
KDSM - Des Moines, Iowa, USA
Distance from station: NNE 122mi, 196km
Updated: Mon, 10-Dec-2018 10:54pm CST
Few Clouds
Few Clouds
 Wind from SSW
Wind: SSW 7 mph , 11 km/h
Temperature: 27°F , -3°C
Wind Chill: 19°F , -7°C
Dew Point: 21°F , -6°C
Humidity: 80%
Barometer: 30.11 inHg , 1019.6 hPa
Clouds: Few Clouds
Visibility: 10 miles , 16 km
Cloud details: Few Clouds 25000 ft
2018/12/11 04:54 KDSM 110454Z 21006KT 10SM FEW250 M03/M06 A3011 RMK AO2 SLP208 T10331056
KFNB - Falls City, Nebraska, USA
Distance from station: W 50mi, 80km
Updated: Mon, 10-Dec-2018 10:53pm CST
Clear
Clear
 Wind from SSW
Wind: SSW 10 mph , 17 km/h
Temperature: 30°F , -1°C
Wind Chill: 21°F , -6°C
Dew Point: 21°F , -6°C
Humidity: 69%
Barometer: 30.15 inHg , 1021 hPa
Clouds: Clear
Visibility: 10 miles , 16 km
2018/12/11 04:53 KFNB 110453Z AUTO 21009KT 10SM CLR M01/M06 A3015 RMK AO2 SLP221 T10111056
 
KMCI - Kansas City, Missouri, USA
Distance from station: S 65mi, 104km
Updated: Mon, 10-Dec-2018 10:53pm CST
Clear
Clear
 Wind from SSW
Wind: SSW 8 mph , 13 km/h
Temperature: 28°F , -2°C
Wind Chill: 20°F , -7°C
Dew Point: 21°F , -6°C
Humidity: 74%
Barometer: 30.21 inHg , 1023 hPa
Clouds: Clear
Visibility: 10 miles , 16 km
2018/12/11 04:53 KMCI 110453Z 21007KT 10SM CLR M02/M06 A3021 RMK AO2 SLP237 T10171061
KOMA - Omaha, Nebraska, USA
Distance from station: NNW 105mi, 169km
Updated: Mon, 10-Dec-2018 10:52pm CST
Partly cloudy
Partly cloudy
 Wind from SSE
Wind: SSE 9 mph , 15 km/h
Temperature: 23°F , -5°C
Wind Chill: 13°F , -11°C
Dew Point: 18°F , -8°C
Humidity: 80%
Barometer: 30.10 inHg , 1019.3 hPa
Clouds: Partly cloudy
Visibility: 10 miles , 16 km
Cloud details: Partly cloudy 25000 ft
2018/12/11 04:52 KOMA 110452Z 15008KT 10SM SCT250 M05/M08 A3010 RMK AO2 SLP207 T10501078
KRDK - Red Oak, Iowa, USA
Distance from station: N 70mi, 112km
Updated: Mon, 10-Dec-2018 11:35pm CST
Clear
Clear
 Wind from SSW
Wind: SSW 3 mph , 6 km/h
Temperature: 21°F , -6°C
Dew Point: 19°F , -7°C
Humidity: 93%
Barometer: 30.13 inHg , 1020.3 hPa
Clouds: Clear
Visibility: 10 miles , 16 km
2018/12/11 05:35 KRDK 110535Z AUTO 20003KT 10SM CLR M06/M07 A3013 RMK AO2
 
KSTJ - Saint Joseph, Missouri, USA
Distance from station: SW 23mi, 37km
Updated: Mon, 10-Dec-2018 10:53pm CST
Clear
Clear
 Wind from S
Wind: S 6 mph , 9 km/h
Temperature: 27°F , -3°C
Wind Chill: 20°F , -7°C
Dew Point: 23°F , -5°C
Humidity: 86%
Barometer: 30.20 inHg , 1022.7 hPa
Clouds: Clear
Visibility: 10 miles , 16 km
2018/12/11 04:53 KSTJ 110453Z AUTO 19005KT 10SM CLR M03/M05 A3020 RMK AO2 SLP237 T10331050
KTOP - Topeka, Kansas, USA
Distance from station: SW 85mi, 137km
Updated: Mon, 10-Dec-2018 10:53pm CST
Clear
Clear
 Wind from SE
Wind: SE 3 mph , 6 km/h
Temperature: 23°F , -5°C
Dew Point: 18°F , -8°C
Humidity: 80%
Barometer: 30.22 inHg , 1023.4 hPa
Clouds: Clear
Visibility: 10 miles , 16 km
2018/12/11 04:53 KTOP 110453Z AUTO 14003KT 10SM CLR M05/M08 A3022 RMK AO2 SLP244 T10501078
KICT - Wichita, Kansas, USA
Distance from station: SW 215mi, 346km
Updated: Mon, 10-Dec-2018 10:53pm CST
Clear
Clear
 Wind from S
Wind: S 5 mph , 7 km/h
Temperature: 28°F , -2°C
Wind Chill: 22°F , -6°C
Dew Point: 19°F , -7°C
Humidity: 69%
Barometer: 30.24 inHg , 1024 hPa
Clouds: Clear
Visibility: 10 miles , 16 km
2018/12/11 04:53 KICT 110453Z 19004KT 10SM CLR M02/M07 A3024 RMK AO2 SLP250 T10221067 $